createdAt,value
2023-03-29T00:00:08.238Z,-2.77
2023-03-29T00:02:35.057Z,-2.82
2023-03-29T00:05:04.042Z,-2.86
2023-03-29T00:07:33.792Z,-2.89
2023-03-29T00:10:02.165Z,-2.93
2023-03-29T00:12:29.101Z,-2.97
2023-03-29T00:14:56.502Z,-3.01
2023-03-29T00:17:23.645Z,-3.04
2023-03-29T00:19:50.548Z,-3.08
2023-03-29T00:22:17.290Z,-3.12
2023-03-29T00:24:44.119Z,-3.16
2023-03-29T00:27:11.008Z,-3.20
2023-03-29T00:29:38.148Z,-3.24
2023-03-29T00:32:05.125Z,-3.28
2023-03-29T00:34:31.906Z,-3.31
2023-03-29T00:36:59.640Z,-3.35
2023-03-29T00:39:28.130Z,-3.38
2023-03-29T00:41:55.357Z,-3.41
2023-03-29T00:44:50.512Z,-3.44
2023-03-29T00:47:21.653Z,-3.49
2023-03-29T00:49:50.483Z,-3.52
2023-03-29T00:52:18.419Z,-3.56
2023-03-29T00:54:46.486Z,-3.59
2023-03-29T00:57:14.930Z,-3.62
2023-03-29T00:59:43.515Z,-3.65
2023-03-29T01:02:11.498Z,-3.68
2023-03-29T01:04:47.977Z,-3.69
2023-03-29T01:07:35.409Z,-3.70
2023-03-29T01:10:14.750Z,-3.71
2023-03-29T01:12:50.213Z,-3.72
2023-03-29T01:15:21.657Z,-3.72
2023-03-29T01:17:51.822Z,-3.73
2023-03-29T01:20:27.477Z,-3.72
2023-03-29T01:23:27.009Z,-3.72
2023-03-29T01:25:57.278Z,-3.70
2023-03-29T01:28:34.458Z,-3.71
2023-03-29T01:31:08.936Z,-3.71
2023-03-29T01:33:51.172Z,-3.72
2023-03-29T01:36:21.802Z,-3.74
2023-03-29T01:38:54.673Z,-3.76
2023-03-29T01:41:22.241Z,-3.79
2023-03-29T01:44:05.924Z,-3.82
2023-03-29T01:46:40.949Z,-3.88
2023-03-29T01:49:24.938Z,-3.93
2023-03-29T01:52:00.398Z,-3.98
2023-03-29T01:54:43.575Z,-4.03
2023-03-29T01:57:12.433Z,-4.09
2023-03-29T01:59:42.583Z,-4.16
2023-03-29T02:02:14.917Z,-4.20
2023-03-29T02:04:51.827Z,-4.27
2023-03-29T02:07:25.577Z,-4.32
2023-03-29T02:09:54.592Z,-4.39
2023-03-29T02:12:21.550Z,-4.44
2023-03-29T02:14:48.316Z,-4.49
2023-03-29T02:17:19.777Z,-4.55
2023-03-29T02:19:50.385Z,-4.61
2023-03-29T02:22:24.092Z,-4.68
2023-03-29T02:24:57.088Z,-4.74
2023-03-29T02:27:23.791Z,-4.81
2023-03-29T02:29:50.617Z,-4.88
2023-03-29T02:32:49.031Z,-4.94
2023-03-29T02:35:29.097Z,-5.02
2023-03-29T02:37:57.760Z,-5.08
2023-03-29T02:40:26.242Z,-5.14
2023-03-29T02:42:55.734Z,-5.20
2023-03-29T02:45:24.296Z,-5.26
2023-03-29T02:47:56.925Z,-5.31
2023-03-29T02:50:27.971Z,-5.33
2023-03-29T02:53:04.718Z,-5.36
2023-03-29T02:55:35.350Z,-5.38
2023-03-29T02:58:08.237Z,-5.38
2023-03-29T03:00:42.429Z,-5.40
2023-03-29T03:03:10.388Z,-5.40
2023-03-29T03:05:38.404Z,-5.41
2023-03-29T03:08:07.903Z,-5.42
2023-03-29T03:10:35.778Z,-5.43
2023-03-29T03:13:03.084Z,-5.46
2023-03-29T03:15:31.254Z,-5.49
2023-03-29T03:17:57.999Z,-5.52
2023-03-29T03:20:24.732Z,-5.56
2023-03-29T03:22:51.491Z,-5.61
2023-03-29T03:25:21.320Z,-5.66
2023-03-29T03:27:48.645Z,-5.71
2023-03-29T03:30:16.293Z,-5.76
2023-03-29T03:32:46.338Z,-5.82
2023-03-29T03:35:13.375Z,-5.88
2023-03-29T03:37:41.064Z,-5.94
2023-03-29T03:40:09.405Z,-6.01
2023-03-29T03:42:36.103Z,-6.07
2023-03-29T03:45:02.958Z,-6.13
2023-03-29T03:47:30.832Z,-6.19
2023-03-29T03:49:57.649Z,-6.26
2023-03-29T03:52:24.437Z,-6.32
2023-03-29T03:54:51.884Z,-6.37
2023-03-29T03:57:18.870Z,-6.41
2023-03-29T03:59:45.684Z,-6.43
2023-03-29T04:02:12.560Z,-6.45
2023-03-29T04:04:40.682Z,-6.47
2023-03-29T04:07:08.329Z,-6.48
2023-03-29T04:09:35.487Z,-6.47
2023-03-29T04:12:02.174Z,-6.48
2023-03-29T04:14:29.563Z,-6.47
2023-03-29T04:16:56.543Z,-6.48
2023-03-29T04:19:23.282Z,-6.48
2023-03-29T04:21:51.397Z,-6.48
2023-03-29T04:24:18.110Z,-6.48
2023-03-29T04:26:45.146Z,-6.48
2023-03-29T04:29:11.993Z,-6.49
2023-03-29T04:31:38.866Z,-6.49
2023-03-29T04:34:05.592Z,-6.49
2023-03-29T04:36:32.429Z,-6.48
2023-03-29T04:39:01.709Z,-6.47
2023-03-29T04:41:29.002Z,-6.47
2023-03-29T04:43:56.716Z,-6.47
2023-03-29T04:46:26.865Z,-6.44
2023-03-29T04:48:54.300Z,-6.43
2023-03-29T04:51:22.463Z,-6.39
2023-03-29T04:53:50.468Z,-6.25
2023-03-29T04:56:17.809Z,-6.06
2023-03-29T04:58:44.710Z,-5.85
2023-03-29T05:01:11.855Z,-5.64
2023-03-29T05:03:38.799Z,-5.44
2023-03-29T05:06:07.788Z,-5.23
2023-03-29T05:08:39.251Z,-5.03
2023-03-29T05:11:09.191Z,-4.84
2023-03-29T05:13:37.034Z,-4.63
2023-03-29T05:16:05.208Z,-4.44
2023-03-29T05:18:32.080Z,-4.26
2023-03-29T05:21:00.195Z,-4.05
2023-03-29T05:23:27.762Z,-3.81
2023-03-29T05:25:54.893Z,-3.56
2023-03-29T05:28:21.814Z,-3.28
2023-03-29T05:31:00.501Z,-3.01
2023-03-29T05:33:28.017Z,-2.74
2023-03-29T05:36:08.227Z,-2.48
2023-03-29T05:38:36.163Z,-2.23
2023-03-29T05:41:03.588Z,-2.02
2023-03-29T05:43:31.032Z,-1.79
2023-03-29T05:45:58.241Z,-1.59
2023-03-29T05:48:26.140Z,-1.39
2023-03-29T05:50:55.320Z,-1.22
2023-03-29T05:53:24.846Z,-1.01
2023-03-29T05:55:51.831Z,-0.81
2023-03-29T05:58:20.428Z,-0.63
2023-03-29T06:00:52.558Z,-0.45
2023-03-29T06:03:23.904Z,-0.28
2023-03-29T06:05:58.855Z,-0.14
2023-03-29T06:08:27.704Z,0.01
2023-03-29T06:11:04.552Z,0.16
2023-03-29T06:13:34.125Z,0.31
2023-03-29T06:16:01.444Z,0.45
2023-03-29T06:18:28.559Z,0.57
2023-03-29T06:20:55.325Z,0.69
2023-03-29T06:23:23.529Z,0.81
2023-03-29T06:25:53.610Z,0.92
2023-03-29T06:28:20.217Z,1.04
2023-03-29T06:30:48.178Z,1.14
2023-03-29T06:33:17.028Z,1.26
2023-03-29T06:35:46.344Z,1.39
2023-03-29T06:38:13.924Z,1.50
2023-03-29T06:40:40.863Z,1.62
2023-03-29T06:43:07.621Z,1.75
2023-03-29T06:45:37.026Z,1.88
2023-03-29T06:48:05.127Z,1.97
2023-03-29T06:50:32.438Z,2.09
2023-03-29T06:52:59.217Z,2.21
2023-03-29T06:55:27.276Z,2.32
2023-03-29T06:57:54.884Z,2.45
2023-03-29T07:00:28.329Z,2.58
2023-03-29T07:02:58.095Z,2.70
2023-03-29T07:05:28.667Z,2.79
2023-03-29T07:07:57.605Z,2.90
2023-03-29T07:10:32.857Z,3.04
2023-03-29T07:13:00.972Z,3.16
2023-03-29T07:15:29.566Z,3.25
2023-03-29T07:17:57.544Z,3.35
2023-03-29T07:20:25.686Z,3.44
2023-03-29T07:22:52.979Z,3.51
2023-03-29T07:25:22.490Z,3.57
2023-03-29T07:27:50.287Z,3.64
2023-03-29T07:30:21.212Z,3.73
2023-03-29T07:32:48.158Z,3.84
2023-03-29T07:35:15.936Z,3.91
2023-03-29T07:37:44.407Z,3.99
2023-03-29T07:40:16.367Z,4.08
2023-03-29T07:42:47.804Z,4.19
2023-03-29T07:45:17.062Z,4.28
2023-03-29T07:47:44.904Z,4.34
2023-03-29T07:50:12.347Z,4.42
2023-03-29T07:52:39.765Z,4.51
2023-03-29T07:55:11.125Z,4.62
2023-03-29T07:57:37.851Z,4.71
2023-03-29T08:00:11.684Z,4.77
2023-03-29T08:02:38.617Z,4.80
2023-03-29T08:05:06.922Z,4.86
2023-03-29T08:07:33.749Z,4.92
2023-03-29T08:10:00.514Z,4.97
2023-03-29T08:12:27.361Z,5.00
2023-03-29T08:14:54.113Z,5.04
2023-03-29T08:17:20.925Z,5.08
2023-03-29T08:19:51.434Z,5.16
2023-03-29T08:22:19.498Z,5.20
2023-03-29T08:27:27.249Z,5.30
2023-03-29T08:29:53.995Z,5.33
2023-03-29T08:32:21.007Z,5.34
2023-03-29T08:34:47.776Z,5.38
2023-03-29T08:37:15.164Z,5.45
2023-03-29T08:39:42.228Z,5.52
2023-03-29T08:42:22.832Z,5.58
2023-03-29T08:45:01.672Z,5.60
2023-03-29T08:47:35.081Z,5.62
2023-03-29T08:50:02.543Z,5.63
2023-03-29T08:52:31.163Z,5.65
2023-03-29T08:55:00.927Z,5.66
2023-03-29T08:57:43.555Z,5.71
2023-03-29T09:00:20.575Z,5.73
2023-03-29T09:02:49.851Z,5.75
2023-03-29T09:05:37.245Z,5.77
2023-03-29T09:08:04.133Z,5.81
2023-03-29T09:10:42.829Z,5.85
2023-03-29T09:13:23.422Z,5.88
2023-03-29T09:15:50.212Z,5.90
2023-03-29T09:18:41.319Z,5.93
2023-03-29T09:21:14.692Z,5.96
2023-03-29T09:23:44.832Z,6.00
2023-03-29T09:26:17.671Z,6.02
2023-03-29T09:29:09.008Z,6.03
2023-03-29T09:31:42.351Z,6.05
2023-03-29T09:34:15.657Z,6.09
2023-03-29T09:36:42.797Z,6.13
2023-03-29T09:39:13.584Z,6.15
2023-03-29T09:41:51.600Z,6.16
2023-03-29T09:44:31.124Z,6.15
2023-03-29T09:47:21.432Z,6.10
2023-03-29T09:49:52.577Z,6.07
2023-03-29T09:52:21.148Z,6.06
2023-03-29T09:54:48.332Z,6.08
2023-03-29T09:57:20.052Z,6.10
2023-03-29T09:59:50.284Z,6.10
2023-03-29T10:02:19.616Z,6.09
2023-03-29T10:04:55.348Z,6.09
2023-03-29T10:07:22.979Z,6.11
2023-03-29T10:09:52.440Z,6.14
2023-03-29T10:12:21.760Z,6.18
2023-03-29T10:14:53.636Z,6.21
2023-03-29T10:17:26.869Z,6.22
2023-03-29T10:20:04.543Z,6.24
2023-03-29T10:22:38.246Z,6.26
2023-03-29T10:25:12.895Z,6.30
2023-03-29T10:27:43.430Z,6.32
2023-03-29T10:30:22.353Z,6.33
2023-03-29T10:33:00.221Z,6.33
2023-03-29T10:35:34.744Z,6.33
2023-03-29T10:38:07.850Z,6.36
2023-03-29T10:40:35.879Z,6.43
2023-03-29T10:43:26.594Z,6.49
2023-03-29T10:45:55.943Z,6.54
2023-03-29T10:48:30.400Z,6.57
2023-03-29T10:51:02.281Z,6.62
2023-03-29T10:53:32.705Z,6.65
2023-03-29T10:56:07.716Z,6.66
2023-03-29T10:58:42.913Z,6.67
2023-03-29T11:01:21.218Z,6.69
2023-03-29T11:04:02.337Z,6.70
2023-03-29T11:06:41.358Z,6.73
2023-03-29T11:09:27.700Z,6.74
2023-03-29T11:12:15.636Z,6.76
2023-03-29T11:15:06.889Z,6.79
2023-03-29T11:17:51.271Z,6.83
2023-03-29T11:20:39.976Z,6.88
2023-03-29T11:23:21.141Z,6.95
2023-03-29T11:26:02.539Z,7.00
2023-03-29T11:28:49.530Z,7.07
2023-03-29T11:31:42.758Z,7.13
2023-03-29T11:34:22.361Z,7.20
2023-03-29T11:36:54.096Z,7.21
2023-03-29T11:39:28.919Z,7.27
2023-03-29T11:42:05.290Z,7.31
2023-03-29T11:44:33.074Z,7.34
2023-03-29T11:47:06.316Z,7.39
2023-03-29T11:49:46.815Z,7.47
2023-03-29T11:52:31.182Z,7.52
2023-03-29T11:55:04.072Z,7.55
2023-03-29T11:57:41.061Z,7.58
2023-03-29T12:00:32.349Z,7.61
2023-03-29T12:03:32.848Z,7.66
2023-03-29T12:06:13.063Z,7.68
2023-03-29T12:09:08.181Z,7.70
2023-03-29T12:12:32.280Z,7.70
2023-03-29T12:15:11.361Z,7.72
2023-03-29T12:18:33.073Z,7.75
2023-03-29T12:22:00.964Z,7.78
2023-03-29T12:25:32.229Z,7.82
2023-03-29T12:28:11.114Z,7.85
2023-03-29T12:31:18.898Z,7.85
2023-03-29T12:34:05.599Z,7.86
2023-03-29T12:37:18.425Z,7.88
2023-03-29T12:40:23.910Z,7.88
2023-03-29T12:43:34.732Z,7.88
2023-03-29T12:46:43.151Z,7.89
2023-03-29T12:49:40.212Z,7.94
2023-03-29T12:52:38.923Z,7.98
2023-03-29T12:56:02.323Z,8.02
2023-03-29T13:10:13.112Z,8.14
2023-03-29T13:13:44.989Z,8.14
2023-03-29T13:17:37.650Z,8.14
2023-03-29T13:20:51.326Z,8.17
2023-03-29T13:24:12.415Z,8.22
2023-03-29T13:27:37.554Z,8.22
2023-03-29T13:45:48.017Z,8.28
2023-03-29T13:48:25.606Z,8.27
2023-03-29T13:50:58.807Z,8.30
2023-03-29T13:53:41.325Z,8.31
2023-03-29T13:56:16.024Z,8.33
2023-03-29T13:58:51.969Z,8.35
2023-03-29T14:01:36.673Z,8.34
2023-03-29T14:04:07.498Z,8.35
2023-03-29T14:06:37.822Z,8.34
2023-03-29T14:09:09.261Z,8.33
2023-03-29T14:11:36.800Z,8.36
2023-03-29T14:14:05.474Z,8.36
2023-03-29T14:16:37.041Z,8.35
2023-03-29T14:19:27.916Z,8.33
2023-03-29T14:21:54.770Z,8.33
2023-03-29T14:24:26.073Z,8.32
2023-03-29T14:26:54.813Z,8.30
2023-03-29T14:29:24.210Z,8.27
2023-03-29T14:31:52.377Z,8.23
2023-03-29T14:34:19.407Z,8.16
2023-03-29T14:36:49.487Z,8.09
2023-03-29T14:39:18.932Z,8.02
2023-03-29T14:41:59.370Z,7.95
2023-03-29T14:44:31.073Z,7.87
2023-03-29T14:46:58.599Z,7.83
2023-03-29T14:49:26.347Z,7.77
2023-03-29T14:51:55.625Z,7.71
2023-03-29T14:54:27.103Z,7.67
2023-03-29T14:56:54.592Z,7.60
2023-03-29T14:59:24.378Z,7.53
2023-03-29T15:01:51.385Z,7.47
2023-03-29T15:04:18.258Z,7.41
2023-03-29T15:06:47.111Z,7.36
2023-03-29T15:09:30.276Z,7.30
2023-03-29T15:11:59.736Z,7.28
2023-03-29T15:14:33.938Z,7.27
2023-03-29T15:17:04.639Z,7.29
2023-03-29T15:19:32.217Z,7.31
2023-03-29T15:22:05.690Z,7.33
2023-03-29T15:24:34.226Z,7.36
2023-03-29T15:27:03.080Z,7.39
2023-03-29T15:29:42.612Z,7.42
2023-03-29T15:32:20.130Z,7.44
2023-03-29T15:34:47.607Z,7.44
2023-03-29T15:37:14.593Z,7.44
2023-03-29T15:39:44.985Z,7.45
2023-03-29T15:42:11.910Z,7.45
2023-03-29T15:44:39.239Z,7.45
2023-03-29T15:47:13.613Z,7.45
2023-03-29T15:49:44.187Z,7.46
2023-03-29T15:52:11.440Z,7.46
2023-03-29T15:54:38.502Z,7.47
2023-03-29T15:57:13.597Z,7.46
2023-03-29T15:59:41.135Z,7.44
2023-03-29T16:02:13.172Z,7.43
2023-03-29T16:04:39.932Z,7.42
2023-03-29T16:07:12.214Z,7.39
2023-03-29T16:09:39.439Z,7.37
2023-03-29T16:12:07.397Z,7.35
2023-03-29T16:14:34.124Z,7.33
2023-03-29T16:17:03.350Z,7.30
2023-03-29T16:19:32.039Z,7.28
2023-03-29T16:22:01.236Z,7.26
2023-03-29T16:24:31.984Z,7.24
2023-03-29T16:26:59.754Z,7.21
2023-03-29T16:29:26.548Z,7.18
2023-03-29T16:31:54.256Z,7.13
2023-03-29T16:34:22.947Z,7.09
2023-03-29T16:36:50.915Z,7.05
2023-03-29T16:39:18.704Z,6.99
2023-03-29T16:41:48.497Z,6.93
2023-03-29T16:44:23.620Z,6.85
2023-03-29T16:46:54.132Z,6.77
2023-03-29T16:49:21.639Z,6.69
2023-03-29T16:51:48.824Z,6.62
2023-03-29T16:54:17.418Z,6.53
2023-03-29T16:56:44.279Z,6.44
2023-03-29T16:59:12.211Z,6.35
2023-03-29T17:01:41.011Z,6.26
2023-03-29T17:04:09.184Z,6.16
2023-03-29T17:06:36.398Z,6.05
2023-03-29T17:09:05.307Z,5.94
2023-03-29T17:11:33.104Z,5.82
2023-03-29T17:14:00.327Z,5.71
2023-03-29T17:16:29.219Z,5.60
2023-03-29T17:19:00.673Z,5.48
2023-03-29T17:21:29.588Z,5.34
2023-03-29T17:23:56.812Z,5.23
2023-03-29T17:26:23.777Z,5.11
2023-03-29T17:28:50.680Z,4.98
2023-03-29T17:31:19.606Z,4.84
2023-03-29T17:33:47.702Z,4.72
2023-03-29T17:36:15.000Z,4.60
2023-03-29T17:38:43.296Z,4.47
2023-03-29T17:41:11.419Z,4.33
2023-03-29T17:43:38.265Z,4.19
2023-03-29T17:46:06.051Z,4.06
2023-03-29T17:48:33.065Z,3.91
2023-03-29T17:50:59.900Z,3.78
2023-03-29T17:53:27.460Z,3.66
2023-03-29T17:55:54.301Z,3.53
2023-03-29T17:58:21.453Z,3.41
2023-03-29T18:00:48.322Z,3.28
2023-03-29T18:03:15.522Z,3.17
2023-03-29T18:05:42.292Z,3.06
2023-03-29T18:08:09.284Z,2.93
2023-03-29T18:10:36.956Z,2.83
2023-03-29T18:13:05.409Z,2.73
2023-03-29T18:15:33.043Z,2.63
2023-03-29T18:18:00.604Z,2.54
2023-03-29T18:20:27.552Z,2.45
2023-03-29T18:22:54.352Z,2.36
2023-03-29T18:25:22.039Z,2.27
2023-03-29T18:27:50.355Z,2.19
2023-03-29T18:30:17.333Z,2.10
2023-03-29T18:32:44.376Z,2.01
2023-03-29T18:35:11.930Z,1.93
2023-03-29T18:37:40.884Z,1.85
2023-03-29T18:40:09.345Z,1.76
2023-03-29T18:42:36.462Z,1.68
2023-03-29T18:45:05.012Z,1.59
2023-03-29T18:47:31.981Z,1.51
2023-03-29T18:49:58.772Z,1.44
2023-03-29T18:52:25.688Z,1.35
2023-03-29T18:54:52.410Z,1.28
2023-03-29T18:57:19.426Z,1.21
2023-03-29T18:59:46.306Z,1.15
2023-03-29T19:02:13.340Z,1.08
2023-03-29T19:04:40.481Z,1.04
2023-03-29T19:07:09.113Z,0.99
2023-03-29T19:09:36.253Z,0.95
2023-03-29T19:12:04.173Z,0.91
2023-03-29T19:14:31.422Z,0.88
2023-03-29T19:16:58.431Z,0.85
2023-03-29T19:19:26.666Z,0.80
2023-03-29T19:21:53.881Z,0.76
2023-03-29T19:24:22.314Z,0.72
2023-03-29T19:26:51.578Z,0.69
2023-03-29T19:29:18.617Z,0.68
2023-03-29T19:31:45.786Z,0.67
2023-03-29T19:34:12.734Z,0.68
2023-03-29T19:36:39.882Z,0.66
2023-03-29T19:39:07.448Z,0.66
2023-03-29T19:41:34.721Z,0.66
2023-03-29T19:44:01.759Z,0.66
2023-03-29T19:46:29.104Z,0.67
2023-03-29T19:48:56.496Z,0.68
2023-03-29T19:51:23.723Z,0.68
2023-03-29T19:53:50.620Z,0.69
2023-03-29T19:56:18.146Z,0.71
2023-03-29T19:58:45.070Z,0.72
2023-03-29T20:01:12.994Z,0.74
2023-03-29T20:03:42.964Z,0.75
2023-03-29T20:06:10.889Z,0.77
2023-03-29T20:08:39.492Z,0.77
2023-03-29T20:11:10.536Z,0.77
2023-03-29T20:13:39.400Z,0.75
2023-03-29T20:16:11.885Z,0.74
2023-03-29T20:18:39.312Z,0.73
2023-03-29T20:21:07.784Z,0.72
2023-03-29T20:23:35.796Z,0.71
2023-03-29T20:26:03.516Z,0.69
2023-03-29T20:28:30.432Z,0.67
2023-03-29T20:30:57.654Z,0.67
2023-03-29T20:33:24.639Z,0.66
2023-03-29T20:35:54.342Z,0.66
2023-03-29T20:38:22.281Z,0.65
2023-03-29T20:40:50.061Z,0.64
2023-03-29T20:43:18.604Z,0.64
2023-03-29T20:45:53.884Z,0.62
2023-03-29T20:48:30.395Z,0.61
2023-03-29T20:50:57.962Z,0.59
2023-03-29T20:53:25.426Z,0.58
2023-03-29T20:55:52.396Z,0.56
2023-03-29T20:58:19.269Z,0.54
2023-03-29T21:00:48.502Z,0.52
2023-03-29T21:03:15.713Z,0.52
2023-03-29T21:05:43.615Z,0.52
2023-03-29T21:08:11.008Z,0.53
2023-03-29T21:10:38.066Z,0.53
2023-03-29T21:13:05.100Z,0.55
2023-03-29T21:15:32.279Z,0.58
2023-03-29T21:17:59.403Z,0.62
2023-03-29T21:20:27.831Z,0.65
2023-03-29T21:22:54.648Z,0.70
2023-03-29T21:25:21.967Z,0.75
2023-03-29T21:27:49.220Z,0.80
2023-03-29T21:30:16.602Z,0.83
2023-03-29T21:32:43.594Z,0.85
2023-03-29T21:35:11.282Z,0.87
2023-03-29T21:37:38.504Z,0.87
2023-03-29T21:40:07.275Z,0.87
2023-03-29T21:42:35.084Z,0.87
2023-03-29T21:45:01.897Z,0.86
2023-03-29T21:47:28.970Z,0.85
2023-03-29T21:49:56.038Z,0.83
2023-03-29T21:52:23.269Z,0.81
2023-03-29T21:54:50.316Z,0.78
2023-03-29T21:57:17.370Z,0.76
2023-03-29T21:59:44.400Z,0.73
2023-03-29T22:02:11.422Z,0.70
2023-03-29T22:04:38.499Z,0.68
2023-03-29T22:07:06.924Z,0.67
2023-03-29T22:09:35.458Z,0.65
2023-03-29T22:12:03.721Z,0.64
2023-03-29T22:14:35.409Z,0.63
2023-03-29T22:17:07.734Z,0.61
2023-03-29T22:19:39.379Z,0.59
2023-03-29T22:22:14.016Z,0.56
2023-03-29T22:24:42.435Z,0.54
2023-03-29T22:27:09.735Z,0.51
2023-03-29T22:29:36.476Z,0.50
2023-03-29T22:32:03.900Z,0.48
2023-03-29T22:34:30.882Z,0.47
2023-03-29T22:36:57.710Z,0.44
2023-03-29T22:39:24.417Z,0.42
2023-03-29T22:41:51.469Z,0.41
2023-03-29T22:44:18.223Z,0.39
2023-03-29T22:46:45.100Z,0.39
2023-03-29T22:49:12.405Z,0.38
2023-03-29T22:51:39.149Z,0.39
2023-03-29T22:54:06.033Z,0.41
2023-03-29T22:56:32.876Z,0.43
2023-03-29T22:58:59.613Z,0.43
2023-03-29T23:01:26.436Z,0.43
2023-03-29T23:03:53.478Z,0.43
2023-03-29T23:06:20.522Z,0.42
2023-03-29T23:08:47.309Z,0.41
2023-03-29T23:11:14.078Z,0.41
2023-03-29T23:13:41.261Z,0.42
2023-03-29T23:16:08.128Z,0.43
2023-03-29T23:18:37.911Z,0.46
2023-03-29T23:21:06.143Z,0.51
2023-03-29T23:23:33.714Z,0.55
2023-03-29T23:26:02.560Z,0.59
2023-03-29T23:28:31.762Z,0.65
2023-03-29T23:31:03.031Z,0.69
2023-03-29T23:33:36.620Z,0.76
2023-03-29T23:36:05.609Z,0.82
2023-03-29T23:38:34.411Z,0.88
2023-03-29T23:41:03.867Z,0.94
2023-03-29T23:43:33.906Z,1.00
2023-03-29T23:46:02.000Z,1.08
2023-03-29T23:48:29.153Z,1.15
2023-03-29T23:50:59.418Z,1.22
2023-03-29T23:53:29.131Z,1.29
2023-03-29T23:56:01.502Z,1.34
2023-03-29T23:58:34.521Z,1.41
